Time;durP1;ratioP1;P1;durP2;ratioP2;P2;SDS_P1;SDS_P2;PMS_P1;PMS_P2;Temp;Humidity;BMP_temperature;BMP_pressure;BME280_temperature;BME280_humidity;BME280_pressure;Samples;Min_cycle;Max_cycle;Signal;HPM_P1;HPM_P2
2021/06/10 00:00:20;;;;;;;;;;;;;;;24.04;52.32;101921.19;2201243;39;113892;-53
2021/06/10 00:01:52;;;;;;;;;;;;;;;23.91;53.16;101916.31;2199237;39;113643;-53
2021/06/10 00:03:24;;;;;;;;;;;;;;;23.89;53.12;101907.34;2201447;39;113939;-53
2021/06/10 00:04:56;;;;;;;;;;;;;;;23.78;53.39;101919.94;2204976;39;114681;-53
2021/06/10 00:06:27;;;;;;;;;;;;;;;23.68;53.55;101908.81;2204394;39;113850;-54
2021/06/10 00:08:00;;;;;;;;;;;;;;;23.72;53.32;101902.25;2195855;39;113681;-53
2021/06/10 00:09:31;;;;;;;;;;;;;;;23.77;52.92;101910.63;2197151;39;114945;-53
2021/06/10 00:11:03;;;;;;;;;;;;;;;23.81;52.76;101905.19;2203163;39;114195;-53
2021/06/10 00:12:35;;;;;;;;;;;;;;;23.83;52.53;101908.56;2210143;39;114507;-53
2021/06/10 00:14:07;;;;;;;;;;;;;;;23.88;52.60;101908.47;2202591;39;114294;-53
2021/06/10 00:15:39;;;;;;;;;;;;;;;23.92;52.68;101912.34;2205409;39;114069;-54
2021/06/10 00:17:12;;;;;;;;;;;;;;;23.95;52.68;101908.91;2199809;39;115091;-53
2021/06/10 00:18:46;;;;;;;;;;;;;;;23.97;52.62;101902.97;2203211;39;115866;-53
2021/06/10 00:20:19;;;;;;;;;;;;;;;23.98;52.61;101896.19;2205129;39;114944;-53
2021/06/10 00:21:50;;;;;;;;;;;;;;;24.01;52.43;101904.03;2201949;39;114790;-54
2021/06/10 00:23:22;;;;;;;;;;;;;;;24.02;52.17;101902.88;2207033;39;114752;-54
2021/06/10 00:24:54;;;;;;;;;;;;;;;24.03;52.73;101904.56;2201342;39;114998;-53
2021/06/10 00:26:26;;;;;;;;;;;;;;;24.05;52.34;101896.59;2204450;39;115837;-54
2021/06/10 00:27:59;;;;;;;;;;;;;;;24.05;52.51;101893.78;2198653;39;114666;-53
2021/06/10 00:29:31;;;;;;;;;;;;;;;24.06;52.21;101887.84;2198354;39;114713;-53
2021/06/10 00:31:03;;;;;;;;;;;;;;;24.07;52.38;101880.22;2207148;39;115126;-53
2021/06/10 00:32:35;;;;;;;;;;;;;;;24.06;52.62;101887.84;2209556;39;115005;-54
2021/06/10 00:34:07;;;;;;;;;;;;;;;24.08;52.25;101881.84;2197037;39;114984;-54
2021/06/10 00:35:39;;;;;;;;;;;;;;;24.08;52.22;101885.53;2198826;39;115079;-54
2021/06/10 00:37:11;;;;;;;;;;;;;;;24.09;52.73;101883.53;2205944;39;114771;-55
2021/06/10 00:38:44;;;;;;;;;;;;;;;24.11;52.43;101895.38;2197150;39;116255;-54
2021/06/10 00:40:15;;;;;;;;;;;;;;;24.06;52.67;101890.66;2202773;39;115698;-54
2021/06/10 00:41:47;;;;;;;;;;;;;;;24.02;52.86;101889.59;2206923;39;115797;-53
2021/06/10 00:43:19;;;;;;;;;;;;;;;23.97;52.97;101884.03;2204100;39;115680;-54
2021/06/10 00:44:50;;;;;;;;;;;;;;;23.96;52.87;101885.19;2204214;39;115760;-53
2021/06/10 00:46:22;;;;;;;;;;;;;;;23.96;52.78;101885.19;2202896;39;115815;-53
2021/06/10 00:47:54;;;;;;;;;;;;;;;23.95;52.91;101883.50;2192322;39;115497;-53
2021/06/10 00:49:26;;;;;;;;;;;;;;;23.94;52.98;101887.47;2193724;39;115832;-53
2021/06/10 00:50:58;;;;;;;;;;;;;;;23.97;52.59;101886.88;2198853;39;115831;-53
2021/06/10 00:52:30;;;;;;;;;;;;;;;23.94;52.87;101888.31;2204046;39;115658;-53
2021/06/10 00:54:02;;;;;;;;;;;;;;;23.94;52.70;101881.81;2197841;39;115617;-53
2021/06/10 00:55:34;;;;;;;;;;;;;;;23.95;52.84;101894.78;2201315;39;114680;-54
2021/06/10 00:57:07;;;;;;;;;;;;;;;23.98;52.91;101899.84;2204888;39;115602;-54
2021/06/10 00:58:39;;;;;;;;;;;;;;;23.96;52.56;101906.94;2208676;39;114495;-53
2021/06/10 01:00:12;;;;;;;;;;;;;;;23.93;53.09;101892.31;2204109;39;113750;-54
2021/06/10 01:01:43;;;;;;;;;;;;;;;23.94;52.96;101893.94;2199221;39;113781;-53
2021/06/10 01:03:16;;;;;;;;;;;;;;;23.91;53.23;101899.38;2198268;39;113857;-54
2021/06/10 01:04:48;;;;;;;;;;;;;;;23.92;52.88;101901.06;2200550;39;114519;-53
2021/06/10 01:06:30;;;;;;;;;;;;;;;23.90;52.84;101904.19;2203822;39;113837;-54
2021/06/10 01:08:10;;;;;;;;;;;;;;;23.96;52.96;101899.31;2196188;39;113978;-53
2021/06/10 01:09:47;;;;;;;;;;;;;;;23.90;53.30;101903.34;2197621;39;114038;-53
2021/06/10 01:11:32;;;;;;;;;;;;;;;23.96;53.21;101902.13;2204453;39;113803;-53
2021/06/10 01:13:06;;;;;;;;;;;;;;;23.93;53.00;101911.22;2194418;39;113764;-53
2021/06/10 01:14:41;;;;;;;;;;;;;;;23.93;52.96;101908.41;2198931;39;113780;-53
2021/06/10 01:16:16;;;;;;;;;;;;;;;23.90;52.98;101898.53;2193060;39;113923;-53
2021/06/10 01:17:48;;;;;;;;;;;;;;;23.86;53.19;101900.31;2199727;39;114043;-53
2021/06/10 01:19:23;;;;;;;;;;;;;;;23.91;52.89;101890.91;2208457;39;114031;-54
2021/06/10 01:20:55;;;;;;;;;;;;;;;23.91;53.07;101885.28;2201671;39;114181;-54
2021/06/10 01:22:36;;;;;;;;;;;;;;;23.91;53.16;101886.13;2203464;39;114229;-53
2021/06/10 01:24:11;;;;;;;;;;;;;;;23.88;52.98;101883.91;2201678;39;114900;-54
2021/06/10 01:25:52;;;;;;;;;;;;;;;23.86;53.21;101877.72;2203428;39;115342;-53
2021/06/10 01:27:25;;;;;;;;;;;;;;;23.85;53.26;101872.38;2193702;39;114783;-54
2021/06/10 01:28:58;;;;;;;;;;;;;;;23.85;53.26;101873.22;2197035;39;115061;-53
2021/06/10 01:30:33;;;;;;;;;;;;;;;23.86;53.19;101872.09;2206054;39;114283;-53
2021/06/10 01:32:06;;;;;;;;;;;;;;;23.85;53.44;101872.38;2197285;39;114072;-54
2021/06/10 01:33:39;;;;;;;;;;;;;;;23.85;53.46;101863.91;2204410;39;115173;-53
2021/06/10 01:35:12;;;;;;;;;;;;;;;23.86;53.34;101859.94;2203596;39;114242;-53
2021/06/10 01:36:46;;;;;;;;;;;;;;;23.86;53.35;101869.25;2197531;39;114994;-53
2021/06/10 01:38:19;;;;;;;;;;;;;;;23.84;53.42;101856.63;2202364;39;114967;-53
2021/06/10 01:39:52;;;;;;;;;;;;;;;23.87;53.24;101859.66;2191462;39;114782;-53
2021/06/10 01:41:24;;;;;;;;;;;;;;;23.89;53.27;101856.53;2196874;39;114181;-53
2021/06/10 01:42:57;;;;;;;;;;;;;;;23.89;53.34;101853.72;2204116;39;114195;-54
2021/06/10 01:44:29;;;;;;;;;;;;;;;23.85;53.36;101852.63;2202588;39;114744;-54
2021/06/10 01:46:01;;;;;;;;;;;;;;;23.90;53.60;101852.53;2200183;39;115707;-53
2021/06/10 01:47:33;;;;;;;;;;;;;;;23.89;53.55;101843.22;2197478;39;114941;-53
2021/06/10 01:49:06;;;;;;;;;;;;;;;23.86;53.31;101843.84;2191256;39;115580;-54
2021/06/10 01:50:38;;;;;;;;;;;;;;;23.90;53.30;101844.91;2197229;39;114508;-54
2021/06/10 01:52:10;;;;;;;;;;;;;;;23.91;53.45;101840.09;2200760;39;116070;-53
2021/06/10 01:53:43;;;;;;;;;;;;;;;23.87;53.50;101839.91;2200236;39;115559;-54
2021/06/10 01:55:16;;;;;;;;;;;;;;;23.87;53.48;101836.22;2201800;39;115967;-53
2021/06/10 01:56:49;;;;;;;;;;;;;;;23.85;53.49;101830.88;2194429;39;114573;-53
2021/06/10 01:58:21;;;;;;;;;;;;;;;23.87;53.56;101830.59;2203030;39;115762;-53
2021/06/10 01:59:54;;;;;;;;;;;;;;;23.85;53.52;101838.50;2204745;39;115765;-54
2021/06/10 02:01:27;;;;;;;;;;;;;;;23.85;53.71;101830.88;2200170;39;115580;-53
2021/06/10 02:03:01;;;;;;;;;;;;;;;23.86;53.66;101832.56;2202838;39;114686;-53
2021/06/10 02:04:33;;;;;;;;;;;;;;;23.83;53.76;101827.56;2198670;39;115829;-53
2021/06/10 02:06:06;;;;;;;;;;;;;;;23.85;53.66;101828.06;2205108;39;116457;-53
2021/06/10 02:07:38;;;;;;;;;;;;;;;23.82;53.95;101839.13;2197021;39;114554;-53
2021/06/10 02:09:11;;;;;;;;;;;;;;;23.85;53.96;101832.88;2205143;39;113826;-54
2021/06/10 02:10:44;;;;;;;;;;;;;;;23.83;53.61;101836.03;2203093;39;113998;-54
2021/06/10 02:12:15;;;;;;;;;;;;;;;23.81;53.97;101837.47;2197823;39;113809;-53
2021/06/10 02:13:48;;;;;;;;;;;;;;;23.80;54.03;101842.25;2196561;39;114715;-53
2021/06/10 02:15:20;;;;;;;;;;;;;;;23.82;53.91;101836.31;2195749;39;113971;-53
2021/06/10 02:16:52;;;;;;;;;;;;;;;23.81;54.13;101843.94;2202401;39;114413;-53
2021/06/10 02:18:26;;;;;;;;;;;;;;;23.79;54.04;101846.25;2203863;39;114005;-53
2021/06/10 02:19:57;;;;;;;;;;;;;;;23.82;53.88;101851.28;2206812;39;113970;-54
2021/06/10 02:21:31;;;;;;;;;;;;;;;23.81;53.92;101843.09;2208334;39;114666;-54
2021/06/10 02:23:02;;;;;;;;;;;;;;;23.83;54.08;101846.47;2201537;39;113857;-53
2021/06/10 02:24:34;;;;;;;;;;;;;;;23.85;53.87;101842.19;2205551;39;113735;-53
2021/06/10 02:26:06;;;;;;;;;;;;;;;23.82;53.85;101836.31;2196370;39;114924;-53
2021/06/10 02:27:41;;;;;;;;;;;;;;;23.83;53.88;101838.00;2198274;39;113970;-53
2021/06/10 02:29:13;;;;;;;;;;;;;;;23.86;53.93;101840.19;2197638;39;115079;-53
2021/06/10 02:30:45;;;;;;;;;;;;;;;23.82;54.09;101834.34;2196631;39;114999;-54
2021/06/10 02:32:17;;;;;;;;;;;;;;;23.81;54.03;101831.81;2190040;39;115169;-54
2021/06/10 02:33:49;;;;;;;;;;;;;;;23.79;53.93;101837.78;2197695;39;114943;-53
2021/06/10 02:35:21;;;;;;;;;;;;;;;23.79;54.03;101823.69;2203509;39;114818;-53
2021/06/10 02:36:52;;;;;;;;;;;;;;;23.79;53.90;101826.50;2204304;39;114732;-53
2021/06/10 02:38:25;;;;;;;;;;;;;;;23.79;54.05;101826.50;2207336;39;114044;-53
2021/06/10 02:39:58;;;;;;;;;;;;;;;23.79;53.86;101828.47;2197010;39;115147;-53
2021/06/10 02:41:30;;;;;;;;;;;;;;;23.80;54.01;101827.34;2202333;39;114772;-53
2021/06/10 02:43:03;;;;;;;;;;;;;;;23.78;54.06;101821.16;2192693;39;115010;-53
2021/06/10 02:44:35;;;;;;;;;;;;;;;23.78;54.02;101824.81;2202397;39;114740;-53
2021/06/10 02:46:08;;;;;;;;;;;;;;;23.77;54.00;101817.50;2203068;39;114475;-53
2021/06/10 02:47:40;;;;;;;;;;;;;;;23.79;53.92;101820.84;2203885;39;114870;-53
2021/06/10 02:49:13;;;;;;;;;;;;;;;23.78;53.86;101821.16;2200009;39;114845;-53
2021/06/10 02:50:45;;;;;;;;;;;;;;;23.79;53.92;101823.69;2202585;39;115732;-53
2021/06/10 02:52:18;;;;;;;;;;;;;;;23.79;54.00;101818.03;2198849;39;114745;-53
2021/06/10 02:53:51;;;;;;;;;;;;;;;23.76;54.37;101823.44;2201732;39;115933;-53
2021/06/10 02:55:23;;;;;;;;;;;;;;;23.75;54.11;101821.78;2194036;39;115598;-53
2021/06/10 02:56:57;;;;;;;;;;;;;;;23.73;54.17;101819.25;2197781;39;115482;-53
2021/06/10 02:58:29;;;;;;;;;;;;;;;23.76;54.06;101813.00;2191929;39;116641;-53
2021/06/10 03:00:01;;;;;;;;;;;;;;;23.76;54.21;101812.16;2201785;39;116168;-54
2021/06/10 03:01:36;;;;;;;;;;;;;;;23.75;53.97;101810.50;2198679;39;115414;-54
2021/06/10 03:03:11;;;;;;;;;;;;;;;23.73;54.26;101809.94;2190596;39;114585;-53
2021/06/10 03:04:44;;;;;;;;;;;;;;;23.73;54.24;101805.16;2201502;39;115446;-54
2021/06/10 03:06:16;;;;;;;;;;;;;;;23.80;54.15;101801.94;2204931;39;114499;-53
2021/06/10 03:07:48;;;;;;;;;;;;;;;23.75;54.07;101810.50;2196966;39;115761;-53
2021/06/10 03:09:22;;;;;;;;;;;;;;;23.70;54.29;101805.78;2196809;39;114670;-53
2021/06/10 03:10:56;;;;;;;;;;;;;;;23.71;54.00;101813.06;2204877;39;115490;-53
2021/06/10 03:12:28;;;;;;;;;;;;;;;23.73;54.06;101822.09;2201582;39;114574;-53
2021/06/10 03:14:01;;;;;;;;;;;;;;;23.70;54.04;101814.25;2205274;39;114138;-53
2021/06/10 03:15:34;;;;;;;;;;;;;;;23.71;54.18;101815.91;2205305;39;114463;-53
2021/06/10 03:17:06;;;;;;;;;;;;;;;23.70;54.20;101813.41;2205888;39;113760;-53
2021/06/10 03:18:39;;;;;;;;;;;;;;;23.69;54.27;101818.22;2200886;39;114002;-54
2021/06/10 03:20:10;;;;;;;;;;;;;;;23.70;54.33;101816.22;2202947;39;114442;-53
2021/06/10 03:21:43;;;;;;;;;;;;;;;23.68;54.17;101813.69;2205192;39;113810;-53
2021/06/10 03:23:14;;;;;;;;;;;;;;;23.65;54.37;101805.88;2196676;39;115744;-53
2021/06/10 03:24:46;;;;;;;;;;;;;;;23.66;54.57;101813.19;2203552;39;113853;-53
2021/06/10 03:26:20;;;;;;;;;;;;;;;23.70;54.26;101813.41;2196348;39;113899;-54
2021/06/10 03:27:52;;;;;;;;;;;;;;;23.66;54.63;101830.13;2198961;39;113669;-53
2021/06/10 03:29:24;;;;;;;;;;;;;;;23.66;54.57;101827.31;2196003;39;113898;-53
2021/06/10 03:30:56;;;;;;;;;;;;;;;23.77;54.43;101831.59;2195825;39;114199;-53
2021/06/10 03:32:29;;;;;;;;;;;;;;;23.68;54.60;101835.44;2198080;39;113808;-53
2021/06/10 03:34:01;;;;;;;;;;;;;;;23.64;54.57;101832.41;2195475;39;113990;-54
2021/06/10 03:35:35;;;;;;;;;;;;;;;23.63;54.78;101830.72;2196663;39;115090;-53
2021/06/10 03:37:08;;;;;;;;;;;;;;;23.63;54.63;101827.91;2189619;39;114732;-53
2021/06/10 03:38:40;;;;;;;;;;;;;;;23.63;54.77;101827.91;2189124;39;116122;-53
2021/06/10 03:40:12;;;;;;;;;;;;;;;23.63;54.82;101822.25;2201218;39;114728;-53
2021/06/10 03:41:44;;;;;;;;;;;;;;;23.63;54.76;101818.59;2205199;39;115302;-53
2021/06/10 03:43:17;;;;;;;;;;;;;;;23.62;54.94;101828.22;2204709;39;114856;-54
2021/06/10 03:44:49;;;;;;;;;;;;;;;23.66;54.69;101823.63;2200727;39;115099;-53
2021/06/10 03:46:21;;;;;;;;;;;;;;;23.63;54.88;101825.06;2207495;39;114763;-53
2021/06/10 03:47:54;;;;;;;;;;;;;;;23.63;54.73;101832.69;2198010;39;115005;-53
2021/06/10 03:49:25;;;;;;;;;;;;;;;23.63;54.79;101842.00;2198616;39;115053;-53
2021/06/10 03:50:57;;;;;;;;;;;;;;;23.70;54.85;101852.91;2204942;39;115094;-53
2021/06/10 03:52:29;;;;;;;;;;;;;;;23.69;55.14;101846.44;2198390;39;114369;-53
2021/06/10 03:54:01;;;;;;;;;;;;;;;23.66;54.91;101846.22;2203342;39;114917;-53
2021/06/10 03:55:33;;;;;;;;;;;;;;;23.60;54.86;101853.06;2200909;39;114813;-53
2021/06/10 03:57:08;;;;;;;;;;;;;;;23.58;55.08;101846.88;2201548;39;115734;-60
2021/06/10 03:58:39;;;;;;;;;;;;;;;23.59;55.03;101840.94;2205271;39;116064;-53
2021/06/10 04:00:11;;;;;;;;;;;;;;;23.58;55.20;101853.38;2202582;39;115470;-54
2021/06/10 04:01:43;;;;;;;;;;;;;;;23.59;55.07;101857.88;2201518;39;114648;-54
2021/06/10 04:03:15;;;;;;;;;;;;;;;23.62;54.73;101853.63;2205603;39;115777;-53
2021/06/10 04:04:47;;;;;;;;;;;;;;;23.61;54.93;101854.75;2199823;39;114806;-54
2021/06/10 04:06:25;;;;;;;;;;;;;;;23.57;55.16;101848.91;2205117;39;115700;-53
2021/06/10 04:07:58;;;;;;;;;;;;;;;23.59;54.79;101845.75;2205246;39;115676;-54
2021/06/10 04:09:29;;;;;;;;;;;;;;;23.55;54.92;101839.03;2198619;39;116064;-53
2021/06/10 04:11:01;;;;;;;;;;;;;;;23.53;54.71;101841.34;2202824;39;115638;-53
2021/06/10 04:12:33;;;;;;;;;;;;;;;23.63;54.84;101839.19;2205096;39;115463;-53
2021/06/10 04:14:05;;;;;;;;;;;;;;;23.55;54.91;101845.53;2205084;39;115466;-54
2021/06/10 04:15:36;;;;;;;;;;;;;;;23.53;54.77;101849.81;2205008;39;115786;-54
2021/06/10 04:17:08;;;;;;;;;;;;;;;23.53;54.99;101855.47;2207452;39;114578;-54
2021/06/10 04:18:40;;;;;;;;;;;;;;;23.54;54.92;101855.13;2204203;39;114470;-53
2021/06/10 04:20:12;;;;;;;;;;;;;;;23.51;55.16;101860.56;2204870;39;113889;-53
2021/06/10 04:21:44;;;;;;;;;;;;;;;23.50;55.19;101859.72;2197677;39;114289;-53
2021/06/10 04:23:16;;;;;;;;;;;;;;;23.56;54.90;101866.13;2202761;39;113945;-53
2021/06/10 04:24:48;;;;;;;;;;;;;;;23.64;54.83;101863.44;2196753;39;114097;-53
2021/06/10 04:26:19;;;;;;;;;;;;;;;23.56;55.14;101869.78;2203292;39;114393;-53
2021/06/10 04:27:51;;;;;;;;;;;;;;;23.53;54.96;101861.91;2196870;39;113629;-54
2021/06/10 04:29:24;;;;;;;;;;;;;;;23.50;55.23;101862.53;2202041;39;114500;-53
2021/06/10 04:30:55;;;;;;;;;;;;;;;23.51;55.16;101871.84;2194202;39;114248;-54
2021/06/10 04:32:27;;;;;;;;;;;;;;;23.54;55.28;101871.22;2196969;39;113843;-53
2021/06/10 04:33:59;;;;;;;;;;;;;;;23.55;55.25;101878.53;2198620;39;113831;-53
2021/06/10 04:35:31;;;;;;;;;;;;;;;23.52;55.22;101879.16;2201915;39;113850;-54
2021/06/10 04:37:05;;;;;;;;;;;;;;;23.49;55.22;101870.16;2203369;39;114322;-53
2021/06/10 04:38:37;;;;;;;;;;;;;;;23.50;55.17;101865.34;2203013;39;113789;-53
2021/06/10 04:40:09;;;;;;;;;;;;;;;23.48;55.41;101859.19;2208279;39;114093;-53
2021/06/10 04:41:41;;;;;;;;;;;;;;;23.46;55.20;101855.84;2195091;39;115052;-53
2021/06/10 04:43:13;;;;;;;;;;;;;;;23.46;55.30;101858.66;2202868;39;115172;-53
2021/06/10 04:44:45;;;;;;;;;;;;;;;23.44;55.66;101860.94;2191902;39;114742;-52
2021/06/10 04:46:17;;;;;;;;;;;;;;;23.44;55.30;101861.78;2192180;39;115423;-54
2021/06/10 04:47:49;;;;;;;;;;;;;;;23.45;55.67;101873.91;2202823;39;115342;-53
2021/06/10 04:49:22;;;;;;;;;;;;;;;23.49;55.66;101863.69;2197762;39;114778;-53
2021/06/10 04:50:55;;;;;;;;;;;;;;;23.42;55.36;101864.03;2202578;39;114765;-53
2021/06/10 04:52:27;;;;;;;;;;;;;;;23.41;55.39;101865.19;2197824;39;114773;-53
2021/06/10 04:53:58;;;;;;;;;;;;;;;23.42;55.45;101866.88;2202883;39;114681;-53
2021/06/10 04:55:30;;;;;;;;;;;;;;;23.42;55.39;101869.69;2202860;39;115216;-53
2021/06/10 04:57:03;;;;;;;;;;;;;;;23.41;55.61;101876.47;2206786;39;115236;-53
2021/06/10 04:58:35;;;;;;;;;;;;;;;23.48;55.58;101864.84;2200014;39;113970;-53
2021/06/10 05:00:07;;;;;;;;;;;;;;;23.40;55.57;101866.31;2195662;39;113998;-53
2021/06/10 05:01:39;;;;;;;;;;;;;;;23.42;55.57;101872.50;2205684;39;115205;-53
2021/06/10 05:03:11;;;;;;;;;;;;;;;23.37;56.08;101864.13;2204371;39;114924;-53
2021/06/10 05:04:43;;;;;;;;;;;;;;;23.49;55.66;101881.44;2204115;39;114828;-53
2021/06/10 05:06:16;;;;;;;;;;;;;;;23.53;55.47;101878.03;2204484;39;115412;-53
2021/06/10 05:07:48;;;;;;;;;;;;;;;23.42;55.85;101880.13;2204581;39;115729;-53
2021/06/10 05:09:20;;;;;;;;;;;;;;;23.38;55.87;101877.09;2199204;39;115573;-52
2021/06/10 05:10:52;;;;;;;;;;;;;;;23.38;55.52;101876.25;2196312;39;115851;-53
2021/06/10 05:12:24;;;;;;;;;;;;;;;23.39;55.92;101881.56;2206200;39;116664;-53
2021/06/10 05:13:56;;;;;;;;;;;;;;;23.38;56.15;101874.25;2195653;39;114591;-53
2021/06/10 05:15:27;;;;;;;;;;;;;;;23.40;55.71;101879.59;2202716;39;116289;-53
2021/06/10 05:16:59;;;;;;;;;;;;;;;23.40;56.14;101877.59;2205809;39;115444;-53
2021/06/10 05:18:31;;;;;;;;;;;;;;;23.37;55.96;101889.50;2205689;39;115968;-54
2021/06/10 05:20:03;;;;;;;;;;;;;;;23.39;56.11;101898.47;2203431;39;115785;-54
2021/06/10 05:21:35;;;;;;;;;;;;;;;23.39;55.89;101887.19;2198379;39;114570;-53
2021/06/10 05:23:07;;;;;;;;;;;;;;;23.40;55.90;101890.88;2197515;39;115942;-53
2021/06/10 05:24:40;;;;;;;;;;;;;;;23.37;55.87;101900.78;2202051;39;113689;-53
2021/06/10 05:26:12;;;;;;;;;;;;;;;23.40;55.84;101893.69;2197324;39;113885;-53
2021/06/10 05:27:44;;;;;;;;;;;;;;;23.41;56.02;101901.00;2206631;39;113752;-53
2021/06/10 05:29:15;;;;;;;;;;;;;;;23.40;56.13;101896.50;2205215;39;113849;-53
2021/06/10 05:30:47;;;;;;;;;;;;;;;23.40;55.98;101899.31;2201335;39;114112;-53
2021/06/10 05:32:19;;;;;;;;;;;;;;;23.42;55.94;101905.50;2201148;39;113674;-53
2021/06/10 05:33:51;;;;;;;;;;;;;;;23.36;55.93;101918.84;2202441;39;113690;-54
2021/06/10 05:35:23;;;;;;;;;;;;;;;23.38;56.01;101913.75;2202109;39;113819;-53
2021/06/10 05:36:55;;;;;;;;;;;;;;;23.34;55.75;101917.47;2200090;39;114069;-53
2021/06/10 05:38:27;;;;;;;;;;;;;;;23.34;55.83;101920.31;2194414;39;113704;-53
2021/06/10 05:39:58;;;;;;;;;;;;;;;23.35;55.78;101924.78;2190747;39;114270;-53
2021/06/10 05:41:30;;;;;;;;;;;;;;;23.33;55.96;101915.81;2200529;39;113848;-54
2021/06/10 05:43:02;;;;;;;;;;;;;;;23.38;55.91;101919.41;2199717;39;113625;-53
2021/06/10 05:44:34;;;;;;;;;;;;;;;23.34;55.67;101918.31;2204769;39;113960;-53
2021/06/10 05:46:05;;;;;;;;;;;;;;;23.32;55.55;101916.94;2205580;39;115435;-53
2021/06/10 05:47:37;;;;;;;;;;;;;;;23.28;55.55;101916.72;2203842;39;114079;-53
2021/06/10 05:49:09;;;;;;;;;;;;;;;23.29;55.71;101917.56;2201201;39;114695;-53
2021/06/10 05:50:41;;;;;;;;;;;;;;;23.28;56.16;101924.31;2200178;39;115219;-53
2021/06/10 05:52:12;;;;;;;;;;;;;;;23.30;55.78;101924.88;2202504;39;115222;-53
2021/06/10 05:53:44;;;;;;;;;;;;;;;23.30;55.93;101931.34;2200360;39;115333;-54
2021/06/10 05:55:16;;;;;;;;;;;;;;;23.29;55.78;101920.38;2202562;39;114918;-53
2021/06/10 05:56:49;;;;;;;;;;;;;;;23.28;55.80;101928.00;2204196;39;115203;-52
2021/06/10 05:58:21;;;;;;;;;;;;;;;23.30;55.96;101925.72;2191514;39;115591;-54
2021/06/10 05:59:53;;;;;;;;;;;;;;;23.29;55.54;101931.66;2191881;39;114183;-53
2021/06/10 06:01:25;;;;;;;;;;;;;;;23.37;55.48;101933.78;2199658;39;114771;-53
2021/06/10 06:02:56;;;;;;;;;;;;;;;23.30;55.76;101922.91;2205000;39;114529;-54
2021/06/10 06:04:28;;;;;;;;;;;;;;;23.31;55.41;101932.16;2205255;39;114920;-54
2021/06/10 06:06:00;;;;;;;;;;;;;;;23.28;55.80;101933.63;2194552;39;115350;-53
2021/06/10 06:07:32;;;;;;;;;;;;;;;23.30;55.77;101930.53;2202327;39;115807;-53
2021/06/10 06:09:07;;;;;;;;;;;;;;;23.29;55.64;101934.47;2197968;39;116054;-53
2021/06/10 06:10:39;;;;;;;;;;;;;;;23.36;55.55;101932.94;2195708;39;115618;-53
2021/06/10 06:12:12;;;;;;;;;;;;;;;23.30;55.40;101937.00;2205580;39;115521;-53
2021/06/10 06:13:48;;;;;;;;;;;;;;;23.27;55.51;101929.13;2205480;39;115579;-53
2021/06/10 06:15:20;;;;;;;;;;;;;;;23.28;55.70;101927.16;2195060;39;115920;-53
2021/06/10 06:16:52;;;;;;;;;;;;;;;23.26;55.60;101937.91;2199675;39;115757;-53
2021/06/10 06:18:24;;;;;;;;;;;;;;;23.26;55.52;101926.63;2203464;39;115585;-53
2021/06/10 06:19:57;;;;;;;;;;;;;;;23.26;55.77;101933.09;2198393;39;115428;-53
2021/06/10 06:21:29;;;;;;;;;;;;;;;23.25;55.61;101927.78;2200982;39;115957;-53
2021/06/10 06:23:01;;;;;;;;;;;;;;;23.25;55.97;101931.44;2191703;39;114715;-53
2021/06/10 06:24:33;;;;;;;;;;;;;;;23.28;55.79;101939.28;2203319;39;115943;-53
2021/06/10 06:26:06;;;;;;;;;;;;;;;23.30;56.17;101934.19;2197101;39;115651;-54
2021/06/10 06:27:38;;;;;;;;;;;;;;;23.33;55.73;101927.94;2200899;39;115724;-54
2021/06/10 06:29:10;;;;;;;;;;;;;;;23.32;56.04;101929.06;2195866;39;115783;-54
2021/06/10 06:30:42;;;;;;;;;;;;;;;23.31;55.78;101927.38;2194371;39;113762;-54
2021/06/10 06:32:13;;;;;;;;;;;;;;;23.28;56.15;101922.34;2201011;39;115781;-52
2021/06/10 06:33:45;;;;;;;;;;;;;;;23.27;55.85;101919.81;2204208;39;114393;-53
2021/06/10 06:35:17;;;;;;;;;;;;;;;23.27;56.14;101929.13;2204943;39;114744;-54
2021/06/10 06:36:49;;;;;;;;;;;;;;;23.27;56.07;101923.50;2197226;39;113968;-53
2021/06/10 06:38:20;;;;;;;;;;;;;;;23.29;55.91;101924.03;2199420;39;114313;-53
2021/06/10 06:39:52;;;;;;;;;;;;;;;23.26;56.01;101915.34;2204782;39;113820;-53
2021/06/10 06:41:24;;;;;;;;;;;;;;;23.27;55.65;101917.84;2200145;39;114585;-53
2021/06/10 06:42:56;;;;;;;;;;;;;;;23.29;55.97;101917.56;2201878;39;113602;-54
2021/06/10 06:44:27;;;;;;;;;;;;;;;23.29;56.01;101915.56;2204630;39;114233;-54
2021/06/10 06:45:59;;;;;;;;;;;;;;;23.41;55.44;101912.28;2201628;39;113929;-53
2021/06/10 06:47:32;;;;;;;;;;;;;;;23.45;54.98;101917.06;2202531;39;113733;-53
2021/06/10 06:49:04;;;;;;;;;;;;;;;23.29;55.20;101915.56;2193518;39;113834;-53
2021/06/10 06:50:36;;;;;;;;;;;;;;;23.25;54.99;101910.84;2205124;39;113603;-53
2021/06/10 06:52:08;;;;;;;;;;;;;;;23.04;55.61;101902.66;2197513;39;114125;-57
2021/06/10 06:53:39;;;;;;;;;;;;;;;22.98;55.68;101906.69;2193873;39;115627;-53
2021/06/10 06:55:24;;;;;;;;;;;;;;;23.02;55.50;101904.13;2196408;39;114636;-53
2021/06/10 06:56:55;;;;;;;;;;;;;;;23.12;55.15;101897.50;2194470;39;115424;-52
2021/06/10 06:58:27;;;;;;;;;;;;;;;23.11;55.19;101904.28;2202101;39;115433;-52
2021/06/10 06:59:59;;;;;;;;;;;;;;;23.12;55.01;101897.50;2204314;39;114835;-53
2021/06/10 07:01:31;;;;;;;;;;;;;;;23.07;55.04;101901.22;2204313;39;114785;-54
2021/06/10 07:03:03;;;;;;;;;;;;;;;23.06;55.47;101910.81;2197678;39;116363;-53
2021/06/10 07:04:35;;;;;;;;;;;;;;;23.05;55.81;101903.50;2200498;39;115116;-53
2021/06/10 07:06:06;;;;;;;;;;;;;;;23.08;55.77;101899.25;2200176;39;114987;-53
2021/06/10 07:07:38;;;;;;;;;;;;;;;23.03;55.73;101898.16;2198789;39;115644;-53
2021/06/10 07:09:10;;;;;;;;;;;;;;;22.99;55.68;101896.25;2203663;39;114214;-53
2021/06/10 07:10:42;;;;;;;;;;;;;;;22.98;56.01;101898.25;2205379;39;114122;-52
2021/06/10 07:12:13;;;;;;;;;;;;;;;22.99;55.62;101901.88;2193573;39;114701;-52
2021/06/10 07:13:45;;;;;;;;;;;;;;;23.01;56.00;101897.63;2200339;39;115481;-53
2021/06/10 07:15:17;;;;;;;;;;;;;;;22.98;56.17;101891.78;2207642;39;115532;-53
2021/06/10 07:16:49;;;;;;;;;;;;;;;22.98;55.79;101901.06;2196946;39;115545;-52
2021/06/10 07:18:21;;;;;;;;;;;;;;;23.01;55.53;101905.25;2197172;39;114612;-53
2021/06/10 07:19:55;;;;;;;;;;;;;;;23.02;55.49;101904.97;2203016;39;115635;-53
2021/06/10 07:21:39;;;;;;;;;;;;;;;23.02;55.68;101907.78;2203889;39;116554;-52
2021/06/10 07:23:11;;;;;;;;;;;;;;;23.04;55.46;101901.81;2205205;39;115581;-52
2021/06/10 07:24:46;;;;;;;;;;;;;;;23.03;55.39;101900.97;2197859;39;115356;-53
2021/06/10 07:26:18;;;;;;;;;;;;;;;23.00;55.55;101901.59;2203720;39;116826;-53
2021/06/10 07:27:50;;;;;;;;;;;;;;;23.05;55.47;101909.13;2204207;39;115614;-54
2021/06/10 07:29:22;;;;;;;;;;;;;;;23.03;55.47;101908.63;2205894;39;114686;-53
2021/06/10 07:30:54;;;;;;;;;;;;;;;23.02;55.62;101904.13;2201292;39;114644;-53
2021/06/10 07:32:26;;;;;;;;;;;;;;;23.09;55.44;101898.94;2192253;39;115204;-53
2021/06/10 07:33:58;;;;;;;;;;;;;;;23.07;55.35;101901.22;2200710;39;115700;-53
2021/06/10 07:35:33;;;;;;;;;;;;;;;23.05;55.15;101909.13;2192912;39;114136;-54
2021/06/10 07:37:06;;;;;;;;;;;;;;;23.03;55.19;101902.97;2192584;39;114094;-53
2021/06/10 07:38:38;;;;;;;;;;;;;;;23.03;55.28;101900.97;2195337;39;113956;-53
2021/06/10 07:40:10;;;;;;;;;;;;;;;23.03;55.06;101903.78;2202946;39;114177;-53
2021/06/10 07:41:42;;;;;;;;;;;;;;;23.07;54.75;101901.22;2204717;39;114063;-53
2021/06/10 07:43:13;;;;;;;;;;;;;;;23.04;54.80;101902.66;2208049;39;114104;-54
2021/06/10 07:44:45;;;;;;;;;;;;;;;23.03;54.95;101900.97;2196675;39;114415;-54
2021/06/10 07:46:17;;;;;;;;;;;;;;;23.04;54.84;101905.47;2200004;39;113888;-53
2021/06/10 07:47:48;;;;;;;;;;;;;;;23.02;55.00;101907.78;2195232;39;114171;-53
2021/06/10 07:49:21;;;;;;;;;;;;;;;23.03;54.78;101903.78;2197011;39;114227;-53